sensor_id;sensor_type;location;lat;lon;timestamp;P1;durP1;ratioP1;P2;durP2;ratioP2
45694;SDS011;31408;45.468;9.124;2023-02-10T00:01:59;26.40;;;11.00;;
45694;SDS011;31408;45.468;9.124;2023-02-10T00:04:25;28.23;;;11.13;;
45694;SDS011;31408;45.468;9.124;2023-02-10T00:06:50;34.85;;;11.60;;
45694;SDS011;31408;45.468;9.124;2023-02-10T00:09:16;26.92;;;11.38;;
45694;SDS011;31408;45.468;9.124;2023-02-10T00:11:41;25.38;;;11.27;;
45694;SDS011;31408;45.468;9.124;2023-02-10T00:14:23;28.77;;;10.45;;
45694;SDS011;31408;45.468;9.124;2023-02-10T00:16:49;30.17;;;11.13;;
45694;SDS011;31408;45.468;9.124;2023-02-10T00:19:16;29.77;;;13.00;;
45694;SDS011;31408;45.468;9.124;2023-02-10T00:21:41;27.77;;;11.90;;
45694;SDS011;31408;45.468;9.124;2023-02-10T00:24:07;26.38;;;11.07;;
45694;SDS011;31408;45.468;9.124;2023-02-10T00:26:32;30.17;;;12.82;;
45694;SDS011;31408;45.468;9.124;2023-02-10T00:28:58;35.47;;;12.45;;
45694;SDS011;31408;45.468;9.124;2023-02-10T00:31:23;27.05;;;12.15;;
45694;SDS011;31408;45.468;9.124;2023-02-10T00:33:49;29.02;;;10.95;;
45694;SDS011;31408;45.468;9.124;2023-02-10T00:36:15;28.42;;;12.43;;
45694;SDS011;31408;45.468;9.124;2023-02-10T00:38:41;44.17;;;13.73;;
45694;SDS011;31408;45.468;9.124;2023-02-10T00:41:17;27.48;;;10.35;;
45694;SDS011;31408;45.468;9.124;2023-02-10T00:43:44;30.20;;;11.57;;
45694;SDS011;31408;45.468;9.124;2023-02-10T00:46:14;24.40;;;10.98;;
45694;SDS011;31408;45.468;9.124;2023-02-10T00:48:41;32.05;;;13.88;;
45694;SDS011;31408;45.468;9.124;2023-02-10T00:51:09;24.08;;;11.15;;
45694;SDS011;31408;45.468;9.124;2023-02-10T00:53:34;33.55;;;12.75;;
45694;SDS011;31408;45.468;9.124;2023-02-10T00:56:00;30.73;;;12.80;;
45694;SDS011;31408;45.468;9.124;2023-02-10T00:58:25;26.80;;;10.93;;
45694;SDS011;31408;45.468;9.124;2023-02-10T01:00:52;25.77;;;10.68;;
45694;SDS011;31408;45.468;9.124;2023-02-10T01:03:18;29.52;;;12.02;;
45694;SDS011;31408;45.468;9.124;2023-02-10T01:05:43;28.42;;;12.63;;
45694;SDS011;31408;45.468;9.124;2023-02-10T01:08:10;26.73;;;11.82;;
45694;SDS011;31408;45.468;9.124;2023-02-10T01:10:36;31.98;;;12.85;;
45694;SDS011;31408;45.468;9.124;2023-02-10T01:13:02;32.00;;;11.95;;
45694;SDS011;31408;45.468;9.124;2023-02-10T01:15:29;32.50;;;12.77;;
45694;SDS011;31408;45.468;9.124;2023-02-10T01:17:54;29.50;;;10.85;;
45694;SDS011;31408;45.468;9.124;2023-02-10T01:20:20;28.08;;;13.30;;
45694;SDS011;31408;45.468;9.124;2023-02-10T01:22:46;33.00;;;13.35;;
45694;SDS011;31408;45.468;9.124;2023-02-10T01:25:11;30.27;;;10.57;;
45694;SDS011;31408;45.468;9.124;2023-02-10T01:27:36;31.17;;;12.50;;
45694;SDS011;31408;45.468;9.124;2023-02-10T01:30:03;32.00;;;12.35;;
45694;SDS011;31408;45.468;9.124;2023-02-10T01:32:30;31.80;;;13.60;;
45694;SDS011;31408;45.468;9.124;2023-02-10T01:34:55;29.77;;;12.52;;
45694;SDS011;31408;45.468;9.124;2023-02-10T01:37:21;25.90;;;11.95;;
45694;SDS011;31408;45.468;9.124;2023-02-10T01:39:48;25.25;;;12.35;;
45694;SDS011;31408;45.468;9.124;2023-02-10T01:42:14;29.40;;;10.82;;
45694;SDS011;31408;45.468;9.124;2023-02-10T01:47:05;34.50;;;12.95;;
45694;SDS011;31408;45.468;9.124;2023-02-10T01:49:33;40.20;;;13.07;;
45694;SDS011;31408;45.468;9.124;2023-02-10T01:54:30;29.55;;;11.60;;
45694;SDS011;31408;45.468;9.124;2023-02-10T01:56:57;28.35;;;11.73;;
45694;SDS011;31408;45.468;9.124;2023-02-10T01:59:24;34.08;;;12.63;;
45694;SDS011;31408;45.468;9.124;2023-02-10T02:01:51;26.77;;;12.43;;
45694;SDS011;31408;45.468;9.124;2023-02-10T02:04:17;32.60;;;12.20;;
45694;SDS011;31408;45.468;9.124;2023-02-10T02:06:42;34.03;;;12.10;;
45694;SDS011;31408;45.468;9.124;2023-02-10T02:09:08;27.85;;;11.35;;
45694;SDS011;31408;45.468;9.124;2023-02-10T02:14:34;28.70;;;12.52;;
45694;SDS011;31408;45.468;9.124;2023-02-10T02:34:15;31.73;;;12.57;;
45694;SDS011;31408;45.468;9.124;2023-02-10T02:36:47;33.90;;;13.38;;
45694;SDS011;31408;45.468;9.124;2023-02-10T02:39:17;28.63;;;13.77;;
45694;SDS011;31408;45.468;9.124;2023-02-10T02:41:43;29.05;;;12.45;;
45694;SDS011;31408;45.468;9.124;2023-02-10T02:44:09;34.88;;;13.20;;
45694;SDS011;31408;45.468;9.124;2023-02-10T02:57:22;29.75;;;13.48;;
45694;SDS011;31408;45.468;9.124;2023-02-10T03:00:24;33.47;;;11.55;;
45694;SDS011;31408;45.468;9.124;2023-02-10T03:02:51;32.72;;;13.32;;
45694;SDS011;31408;45.468;9.124;2023-02-10T03:05:18;24.67;;;11.02;;
45694;SDS011;31408;45.468;9.124;2023-02-10T03:07:49;25.67;;;11.15;;
45694;SDS011;31408;45.468;9.124;2023-02-10T03:10:15;27.98;;;10.65;;
45694;SDS011;31408;45.468;9.124;2023-02-10T03:12:41;32.33;;;11.02;;
45694;SDS011;31408;45.468;9.124;2023-02-10T03:15:07;25.40;;;11.23;;
45694;SDS011;31408;45.468;9.124;2023-02-10T03:17:32;28.08;;;11.27;;
45694;SDS011;31408;45.468;9.124;2023-02-10T03:19:58;25.63;;;12.98;;
45694;SDS011;31408;45.468;9.124;2023-02-10T03:22:23;31.52;;;13.88;;
45694;SDS011;31408;45.468;9.124;2023-02-10T03:24:49;30.98;;;13.68;;
45694;SDS011;31408;45.468;9.124;2023-02-10T03:27:14;31.13;;;13.05;;
45694;SDS011;31408;45.468;9.124;2023-02-10T03:29:40;32.33;;;13.00;;
45694;SDS011;31408;45.468;9.124;2023-02-10T03:32:07;23.65;;;11.25;;
45694;SDS011;31408;45.468;9.124;2023-02-10T03:34:32;34.28;;;12.23;;
45694;SDS011;31408;45.468;9.124;2023-02-10T03:36:58;35.88;;;12.35;;
45694;SDS011;31408;45.468;9.124;2023-02-10T03:39:23;34.78;;;13.35;;
45694;SDS011;31408;45.468;9.124;2023-02-10T03:41:49;24.85;;;11.32;;
45694;SDS011;31408;45.468;9.124;2023-02-10T03:44:14;26.58;;;13.65;;
45694;SDS011;31408;45.468;9.124;2023-02-10T03:46:40;36.45;;;14.57;;
45694;SDS011;31408;45.468;9.124;2023-02-10T03:49:06;30.75;;;12.75;;
45694;SDS011;31408;45.468;9.124;2023-02-10T03:51:31;25.13;;;12.23;;
45694;SDS011;31408;45.468;9.124;2023-02-10T03:53:57;31.80;;;15.13;;
45694;SDS011;31408;45.468;9.124;2023-02-10T03:56:22;28.83;;;11.27;;
45694;SDS011;31408;45.468;9.124;2023-02-10T03:58:48;22.60;;;10.75;;
45694;SDS011;31408;45.468;9.124;2023-02-10T04:01:14;35.60;;;12.75;;
45694;SDS011;31408;45.468;9.124;2023-02-10T04:03:41;33.97;;;13.02;;
45694;SDS011;31408;45.468;9.124;2023-02-10T04:06:07;33.45;;;13.13;;
45694;SDS011;31408;45.468;9.124;2023-02-10T04:08:33;26.10;;;11.63;;
45694;SDS011;31408;45.468;9.124;2023-02-10T04:10:58;25.55;;;11.40;;
45694;SDS011;31408;45.468;9.124;2023-02-10T04:13:24;27.73;;;11.52;;
45694;SDS011;31408;45.468;9.124;2023-02-10T04:15:59;30.08;;;14.65;;
45694;SDS011;31408;45.468;9.124;2023-02-10T04:18:25;30.83;;;12.13;;
45694;SDS011;31408;45.468;9.124;2023-02-10T04:20:51;29.63;;;12.35;;
45694;SDS011;31408;45.468;9.124;2023-02-10T04:23:16;32.33;;;13.85;;
45694;SDS011;31408;45.468;9.124;2023-02-10T04:25:42;30.85;;;12.25;;
45694;SDS011;31408;45.468;9.124;2023-02-10T04:28:07;28.90;;;12.52;;
45694;SDS011;31408;45.468;9.124;2023-02-10T04:30:32;35.72;;;13.90;;
45694;SDS011;31408;45.468;9.124;2023-02-10T04:32:58;25.08;;;11.45;;
45694;SDS011;31408;45.468;9.124;2023-02-10T04:35:23;31.30;;;12.60;;
45694;SDS011;31408;45.468;9.124;2023-02-10T04:37:49;26.65;;;12.55;;
45694;SDS011;31408;45.468;9.124;2023-02-10T04:40:14;24.67;;;10.55;;
45694;SDS011;31408;45.468;9.124;2023-02-10T04:42:40;31.00;;;12.02;;
45694;SDS011;31408;45.468;9.124;2023-02-10T04:45:05;31.25;;;12.38;;
45694;SDS011;31408;45.468;9.124;2023-02-10T04:47:31;27.33;;;11.93;;
45694;SDS011;31408;45.468;9.124;2023-02-10T04:49:57;30.60;;;12.43;;
45694;SDS011;31408;45.468;9.124;2023-02-10T04:52:22;33.45;;;13.95;;
45694;SDS011;31408;45.468;9.124;2023-02-10T04:54:48;35.95;;;13.57;;
45694;SDS011;31408;45.468;9.124;2023-02-10T04:57:13;29.92;;;13.18;;
45694;SDS011;31408;45.468;9.124;2023-02-10T04:59:39;35.67;;;13.13;;
45694;SDS011;31408;45.468;9.124;2023-02-10T05:02:04;27.92;;;11.40;;
45694;SDS011;31408;45.468;9.124;2023-02-10T05:04:30;26.77;;;12.15;;
45694;SDS011;31408;45.468;9.124;2023-02-10T05:06:55;28.80;;;11.63;;
45694;SDS011;31408;45.468;9.124;2023-02-10T05:09:23;31.33;;;13.70;;
45694;SDS011;31408;45.468;9.124;2023-02-10T05:11:49;36.85;;;14.25;;
45694;SDS011;31408;45.468;9.124;2023-02-10T05:14:15;25.88;;;11.95;;
45694;SDS011;31408;45.468;9.124;2023-02-10T05:16:40;32.38;;;13.27;;
45694;SDS011;31408;45.468;9.124;2023-02-10T05:19:06;30.17;;;13.02;;
45694;SDS011;31408;45.468;9.124;2023-02-10T05:21:31;23.90;;;11.02;;
45694;SDS011;31408;45.468;9.124;2023-02-10T05:23:57;29.55;;;12.95;;
45694;SDS011;31408;45.468;9.124;2023-02-10T05:26:23;30.13;;;12.02;;
45694;SDS011;31408;45.468;9.124;2023-02-10T05:28:49;37.30;;;13.75;;
45694;SDS011;31408;45.468;9.124;2023-02-10T05:31:14;26.73;;;10.48;;
45694;SDS011;31408;45.468;9.124;2023-02-10T05:33:40;23.38;;;10.98;;
45694;SDS011;31408;45.468;9.124;2023-02-10T05:36:05;32.55;;;13.88;;
45694;SDS011;31408;45.468;9.124;2023-02-10T05:38:31;27.48;;;11.98;;
45694;SDS011;31408;45.468;9.124;2023-02-10T05:40:56;32.45;;;16.33;;
45694;SDS011;31408;45.468;9.124;2023-02-10T05:43:22;31.85;;;14.35;;
45694;SDS011;31408;45.468;9.124;2023-02-10T05:45:47;28.02;;;12.20;;
45694;SDS011;31408;45.468;9.124;2023-02-10T05:48:13;30.90;;;11.18;;
45694;SDS011;31408;45.468;9.124;2023-02-10T05:50:39;31.20;;;12.85;;
45694;SDS011;31408;45.468;9.124;2023-02-10T05:53:12;23.33;;;11.50;;
45694;SDS011;31408;45.468;9.124;2023-02-10T05:55:38;36.80;;;10.98;;
45694;SDS011;31408;45.468;9.124;2023-02-10T05:58:03;25.92;;;11.35;;
45694;SDS011;31408;45.468;9.124;2023-02-10T06:00:29;26.45;;;11.23;;
45694;SDS011;31408;45.468;9.124;2023-02-10T06:02:54;25.33;;;12.32;;
45694;SDS011;31408;45.468;9.124;2023-02-10T06:05:20;25.90;;;11.07;;
45694;SDS011;31408;45.468;9.124;2023-02-10T06:07:45;27.33;;;12.40;;
45694;SDS011;31408;45.468;9.124;2023-02-10T06:10:10;34.30;;;14.57;;
45694;SDS011;31408;45.468;9.124;2023-02-10T06:12:36;37.03;;;12.95;;
45694;SDS011;31408;45.468;9.124;2023-02-10T06:15:02;32.60;;;11.48;;
45694;SDS011;31408;45.468;9.124;2023-02-10T06:17:27;26.88;;;11.88;;
45694;SDS011;31408;45.468;9.124;2023-02-10T06:19:53;31.73;;;14.48;;
45694;SDS011;31408;45.468;9.124;2023-02-10T06:22:18;28.08;;;12.43;;
45694;SDS011;31408;45.468;9.124;2023-02-10T06:24:44;26.75;;;10.73;;
45694;SDS011;31408;45.468;9.124;2023-02-10T06:27:09;23.50;;;11.95;;
45694;SDS011;31408;45.468;9.124;2023-02-10T06:29:35;26.67;;;10.63;;
45694;SDS011;31408;45.468;9.124;2023-02-10T06:32:00;22.77;;;11.27;;
45694;SDS011;31408;45.468;9.124;2023-02-10T06:34:26;31.30;;;14.10;;
45694;SDS011;31408;45.468;9.124;2023-02-10T06:36:51;28.73;;;11.50;;
45694;SDS011;31408;45.468;9.124;2023-02-10T06:39:17;30.95;;;13.35;;
45694;SDS011;31408;45.468;9.124;2023-02-10T06:41:42;27.23;;;12.05;;
45694;SDS011;31408;45.468;9.124;2023-02-10T06:44:08;26.50;;;11.77;;
45694;SDS011;31408;45.468;9.124;2023-02-10T06:46:33;30.23;;;13.27;;
45694;SDS011;31408;45.468;9.124;2023-02-10T06:48:59;33.55;;;13.52;;
45694;SDS011;31408;45.468;9.124;2023-02-10T06:51:26;29.75;;;14.73;;
45694;SDS011;31408;45.468;9.124;2023-02-10T06:53:52;27.08;;;12.00;;
45694;SDS011;31408;45.468;9.124;2023-02-10T06:56:17;25.38;;;11.50;;
45694;SDS011;31408;45.468;9.124;2023-02-10T06:58:43;37.97;;;14.15;;
45694;SDS011;31408;45.468;9.124;2023-02-10T07:01:09;34.50;;;15.20;;
45694;SDS011;31408;45.468;9.124;2023-02-10T07:03:36;28.55;;;12.75;;
45694;SDS011;31408;45.468;9.124;2023-02-10T07:06:02;27.30;;;13.75;;
45694;SDS011;31408;45.468;9.124;2023-02-10T07:08:28;30.35;;;13.02;;
45694;SDS011;31408;45.468;9.124;2023-02-10T07:10:54;29.95;;;12.23;;
45694;SDS011;31408;45.468;9.124;2023-02-10T07:13:19;30.08;;;12.82;;
45694;SDS011;31408;45.468;9.124;2023-02-10T07:15:45;30.88;;;13.45;;
45694;SDS011;31408;45.468;9.124;2023-02-10T07:18:11;25.58;;;11.80;;
45694;SDS011;31408;45.468;9.124;2023-02-10T07:20:36;30.55;;;12.98;;
45694;SDS011;31408;45.468;9.124;2023-02-10T07:23:07;25.85;;;11.75;;
45694;SDS011;31408;45.468;9.124;2023-02-10T07:25:32;28.08;;;12.90;;
45694;SDS011;31408;45.468;9.124;2023-02-10T07:27:58;30.67;;;12.60;;
45694;SDS011;31408;45.468;9.124;2023-02-10T07:30:23;34.25;;;13.32;;
45694;SDS011;31408;45.468;9.124;2023-02-10T07:32:50;29.27;;;14.40;;
45694;SDS011;31408;45.468;9.124;2023-02-10T07:35:16;30.77;;;13.63;;
45694;SDS011;31408;45.468;9.124;2023-02-10T07:37:41;32.42;;;14.73;;
45694;SDS011;31408;45.468;9.124;2023-02-10T07:40:07;29.10;;;11.77;;
45694;SDS011;31408;45.468;9.124;2023-02-10T07:42:43;31.70;;;13.70;;
45694;SDS011;31408;45.468;9.124;2023-02-10T07:45:21;33.55;;;14.13;;
45694;SDS011;31408;45.468;9.124;2023-02-10T07:47:46;34.72;;;13.38;;
45694;SDS011;31408;45.468;9.124;2023-02-10T07:50:11;38.08;;;16.05;;
45694;SDS011;31408;45.468;9.124;2023-02-10T07:52:37;32.03;;;15.23;;
45694;SDS011;31408;45.468;9.124;2023-02-10T07:55:02;33.55;;;13.75;;
45694;SDS011;31408;45.468;9.124;2023-02-10T07:57:29;31.55;;;14.32;;
45694;SDS011;31408;45.468;9.124;2023-02-10T07:59:55;35.00;;;14.65;;
45694;SDS011;31408;45.468;9.124;2023-02-10T08:02:20;31.92;;;13.90;;
45694;SDS011;31408;45.468;9.124;2023-02-10T08:04:46;31.70;;;13.90;;
45694;SDS011;31408;45.468;9.124;2023-02-10T08:07:11;33.47;;;14.50;;
45694;SDS011;31408;45.468;9.124;2023-02-10T08:09:37;30.25;;;13.60;;
45694;SDS011;31408;45.468;9.124;2023-02-10T08:12:02;29.92;;;13.60;;
45694;SDS011;31408;45.468;9.124;2023-02-10T08:14:28;32.17;;;15.35;;
45694;SDS011;31408;45.468;9.124;2023-02-10T08:16:54;31.83;;;14.10;;
45694;SDS011;31408;45.468;9.124;2023-02-10T08:19:19;30.85;;;14.40;;
45694;SDS011;31408;45.468;9.124;2023-02-10T08:21:45;33.22;;;15.40;;
45694;SDS011;31408;45.468;9.124;2023-02-10T08:24:10;28.63;;;14.02;;
45694;SDS011;31408;45.468;9.124;2023-02-10T08:26:36;30.70;;;13.98;;
45694;SDS011;31408;45.468;9.124;2023-02-10T08:29:02;35.85;;;14.93;;
45694;SDS011;31408;45.468;9.124;2023-02-10T08:31:28;33.22;;;14.38;;
45694;SDS011;31408;45.468;9.124;2023-02-10T08:33:53;32.85;;;14.77;;
45694;SDS011;31408;45.468;9.124;2023-02-10T08:36:20;31.00;;;14.57;;
45694;SDS011;31408;45.468;9.124;2023-02-10T08:38:46;30.23;;;13.60;;
45694;SDS011;31408;45.468;9.124;2023-02-10T08:41:12;29.77;;;13.05;;
45694;SDS011;31408;45.468;9.124;2023-02-10T08:43:38;28.73;;;13.18;;
45694;SDS011;31408;45.468;9.124;2023-02-10T08:46:04;35.38;;;15.93;;
45694;SDS011;31408;45.468;9.124;2023-02-10T08:48:29;34.40;;;15.18;;
45694;SDS011;31408;45.468;9.124;2023-02-10T08:50:55;32.03;;;14.85;;
45694;SDS011;31408;45.468;9.124;2023-02-10T08:53:21;32.88;;;15.30;;
45694;SDS011;31408;45.468;9.124;2023-02-10T08:56:03;28.75;;;13.48;;
45694;SDS011;31408;45.468;9.124;2023-02-10T08:58:31;32.28;;;15.93;;
45694;SDS011;31408;45.468;9.124;2023-02-10T09:00:56;32.33;;;15.27;;
45694;SDS011;31408;45.468;9.124;2023-02-10T09:03:24;27.42;;;13.68;;
45694;SDS011;31408;45.468;9.124;2023-02-10T09:05:51;33.17;;;14.55;;
45694;SDS011;31408;45.468;9.124;2023-02-10T09:08:17;30.70;;;14.18;;
45694;SDS011;31408;45.468;9.124;2023-02-10T09:10:43;29.88;;;12.82;;
45694;SDS011;31408;45.468;9.124;2023-02-10T09:13:10;29.55;;;13.93;;
45694;SDS011;31408;45.468;9.124;2023-02-10T09:15:37;28.70;;;13.65;;
45694;SDS011;31408;45.468;9.124;2023-02-10T09:18:03;28.60;;;12.85;;
45694;SDS011;31408;45.468;9.124;2023-02-10T09:20:29;30.58;;;14.20;;
45694;SDS011;31408;45.468;9.124;2023-02-10T09:22:54;24.85;;;11.63;;
45694;SDS011;31408;45.468;9.124;2023-02-10T09:25:20;26.48;;;13.15;;
45694;SDS011;31408;45.468;9.124;2023-02-10T09:27:47;28.48;;;13.25;;
45694;SDS011;31408;45.468;9.124;2023-02-10T09:30:12;28.80;;;13.32;;
45694;SDS011;31408;45.468;9.124;2023-02-10T09:32:38;28.20;;;14.45;;
45694;SDS011;31408;45.468;9.124;2023-02-10T09:35:03;27.73;;;13.68;;
45694;SDS011;31408;45.468;9.124;2023-02-10T09:37:29;28.85;;;13.88;;
45694;SDS011;31408;45.468;9.124;2023-02-10T09:39:55;29.08;;;14.55;;
45694;SDS011;31408;45.468;9.124;2023-02-10T09:42:23;29.60;;;14.75;;
45694;SDS011;31408;45.468;9.124;2023-02-10T09:44:59;31.92;;;14.57;;
45694;SDS011;31408;45.468;9.124;2023-02-10T09:50:33;25.25;;;12.07;;
45694;SDS011;31408;45.468;9.124;2023-02-10T09:53:39;28.75;;;13.27;;
45694;SDS011;31408;45.468;9.124;2023-02-10T09:56:03;29.48;;;13.27;;
45694;SDS011;31408;45.468;9.124;2023-02-10T10:06:49;30.63;;;13.27;;
45694;SDS011;31408;45.468;9.124;2023-02-10T10:09:45;25.55;;;12.32;;
45694;SDS011;31408;45.468;9.124;2023-02-10T10:12:16;30.15;;;13.18;;
45694;SDS011;31408;45.468;9.124;2023-02-10T10:14:43;28.40;;;12.93;;
45694;SDS011;31408;45.468;9.124;2023-02-10T10:19:46;32.05;;;15.07;;
45694;SDS011;31408;45.468;9.124;2023-02-10T10:27:34;32.88;;;17.08;;
45694;SDS011;31408;45.468;9.124;2023-02-10T10:30:48;28.13;;;12.07;;
45694;SDS011;31408;45.468;9.124;2023-02-10T10:33:02;27.13;;;13.48;;
45694;SDS011;31408;45.468;9.124;2023-02-10T10:35:51;32.28;;;13.77;;
45694;SDS011;31408;45.468;9.124;2023-02-10T10:38:21;27.23;;;13.02;;
45694;SDS011;31408;45.468;9.124;2023-02-10T10:40:48;29.27;;;13.75;;
45694;SDS011;31408;45.468;9.124;2023-02-10T10:43:20;30.45;;;14.70;;
45694;SDS011;31408;45.468;9.124;2023-02-10T10:45:49;31.55;;;14.25;;
45694;SDS011;31408;45.468;9.124;2023-02-10T10:48:21;27.30;;;13.23;;
45694;SDS011;31408;45.468;9.124;2023-02-10T10:51:02;31.05;;;14.10;;
45694;SDS011;31408;45.468;9.124;2023-02-10T10:53:35;35.22;;;15.63;;
45694;SDS011;31408;45.468;9.124;2023-02-10T10:58:43;30.42;;;13.82;;
45694;SDS011;31408;45.468;9.124;2023-02-10T11:01:10;29.77;;;13.77;;
45694;SDS011;31408;45.468;9.124;2023-02-10T11:03:39;33.38;;;15.40;;
45694;SDS011;31408;45.468;9.124;2023-02-10T11:08:52;29.92;;;13.68;;
45694;SDS011;31408;45.468;9.124;2023-02-10T11:11:20;32.05;;;13.93;;
45694;SDS011;31408;45.468;9.124;2023-02-10T11:14:03;28.52;;;12.43;;
45694;SDS011;31408;45.468;9.124;2023-02-10T11:16:48;31.30;;;13.85;;
45694;SDS011;31408;45.468;9.124;2023-02-10T11:19:27;32.80;;;14.23;;
45694;SDS011;31408;45.468;9.124;2023-02-10T11:21:55;27.25;;;12.88;;
45694;SDS011;31408;45.468;9.124;2023-02-10T11:24:27;32.10;;;12.98;;
45694;SDS011;31408;45.468;9.124;2023-02-10T11:26:57;27.30;;;12.82;;
45694;SDS011;31408;45.468;9.124;2023-02-10T11:29:25;30.70;;;12.15;;
45694;SDS011;31408;45.468;9.124;2023-02-10T11:31:52;30.55;;;13.73;;
45694;SDS011;31408;45.468;9.124;2023-02-10T11:37:16;29.75;;;12.25;;
45694;SDS011;31408;45.468;9.124;2023-02-10T11:39:46;26.52;;;12.68;;
45694;SDS011;31408;45.468;9.124;2023-02-10T11:47:36;25.27;;;11.00;;
45694;SDS011;31408;45.468;9.124;2023-02-10T11:50:02;27.65;;;12.98;;
45694;SDS011;31408;45.468;9.124;2023-02-10T11:52:29;24.80;;;11.52;;
45694;SDS011;31408;45.468;9.124;2023-02-10T11:54:58;31.08;;;13.30;;
45694;SDS011;31408;45.468;9.124;2023-02-10T11:57:26;29.33;;;12.65;;
45694;SDS011;31408;45.468;9.124;2023-02-10T12:16:12;28.55;;;12.35;;
45694;SDS011;31408;45.468;9.124;2023-02-10T12:21:25;26.88;;;11.02;;
45694;SDS011;31408;45.468;9.124;2023-02-10T12:24:38;23.88;;;9.77;;
45694;SDS011;31408;45.468;9.124;2023-02-10T12:34:55;25.70;;;11.57;;
45694;SDS011;31408;45.468;9.124;2023-02-10T12:37:53;24.98;;;9.43;;
45694;SDS011;31408;45.468;9.124;2023-02-10T12:40:40;24.63;;;10.00;;
45694;SDS011;31408;45.468;9.124;2023-02-10T12:45:57;20.92;;;10.20;;
45694;SDS011;31408;45.468;9.124;2023-02-10T12:48:33;25.83;;;10.45;;
45694;SDS011;31408;45.468;9.124;2023-02-10T12:53:55;22.08;;;10.40;;
45694;SDS011;31408;45.468;9.124;2023-02-10T12:56:25;23.98;;;9.25;;
45694;SDS011;31408;45.468;9.124;2023-02-10T12:58:54;20.27;;;9.88;;
45694;SDS011;31408;45.468;9.124;2023-02-10T13:04:02;27.52;;;10.23;;
45694;SDS011;31408;45.468;9.124;2023-02-10T13:06:34;21.10;;;9.00;;
45694;SDS011;31408;45.468;9.124;2023-02-10T13:09:23;24.17;;;10.10;;
45694;SDS011;31408;45.468;9.124;2023-02-10T13:14:25;25.55;;;10.23;;
45694;SDS011;31408;45.468;9.124;2023-02-10T13:16:56;21.90;;;8.98;;
45694;SDS011;31408;45.468;9.124;2023-02-10T13:25:50;23.73;;;10.43;;
45694;SDS011;31408;45.468;9.124;2023-02-10T13:28:21;24.90;;;10.80;;
45694;SDS011;31408;45.468;9.124;2023-02-10T13:36:32;19.30;;;9.18;;
45694;SDS011;31408;45.468;9.124;2023-02-10T13:39:00;24.23;;;9.75;;
45694;SDS011;31408;45.468;9.124;2023-02-10T13:41:34;23.88;;;10.35;;
45694;SDS011;31408;45.468;9.124;2023-02-10T13:44:25;19.27;;;8.43;;
45694;SDS011;31408;45.468;9.124;2023-02-10T13:47:08;25.63;;;8.43;;
45694;SDS011;31408;45.468;9.124;2023-02-10T13:49:38;22.27;;;8.43;;
45694;SDS011;31408;45.468;9.124;2023-02-10T13:52:15;20.70;;;9.00;;
45694;SDS011;31408;45.468;9.124;2023-02-10T13:54:51;24.73;;;9.20;;
45694;SDS011;31408;45.468;9.124;2023-02-10T13:57:23;23.48;;;10.52;;
45694;SDS011;31408;45.468;9.124;2023-02-10T13:59:53;26.85;;;10.25;;
45694;SDS011;31408;45.468;9.124;2023-02-10T14:02:22;23.58;;;9.57;;
45694;SDS011;31408;45.468;9.124;2023-02-10T14:04:50;24.25;;;10.70;;
45694;SDS011;31408;45.468;9.124;2023-02-10T14:12:30;20.88;;;8.27;;
45694;SDS011;31408;45.468;9.124;2023-02-10T14:14:56;26.95;;;9.80;;
45694;SDS011;31408;45.468;9.124;2023-02-10T14:17:42;24.67;;;10.48;;
45694;SDS011;31408;45.468;9.124;2023-02-10T14:20:29;17.27;;;7.95;;
45694;SDS011;31408;45.468;9.124;2023-02-10T14:23:03;22.70;;;8.27;;
45694;SDS011;31408;45.468;9.124;2023-02-10T14:25:34;20.85;;;9.15;;
45694;SDS011;31408;45.468;9.124;2023-02-10T14:28:02;24.05;;;9.25;;
45694;SDS011;31408;45.468;9.124;2023-02-10T14:33:05;21.67;;;8.40;;
45694;SDS011;31408;45.468;9.124;2023-02-10T14:35:38;22.23;;;10.57;;
45694;SDS011;31408;45.468;9.124;2023-02-10T14:38:04;18.90;;;8.88;;
45694;SDS011;31408;45.468;9.124;2023-02-10T14:40:31;18.70;;;8.27;;
45694;SDS011;31408;45.468;9.124;2023-02-10T14:42:58;22.88;;;10.05;;
45694;SDS011;31408;45.468;9.124;2023-02-10T14:45:25;20.95;;;8.77;;
45694;SDS011;31408;45.468;9.124;2023-02-10T14:47:53;23.23;;;10.35;;
45694;SDS011;31408;45.468;9.124;2023-02-10T14:50:25;17.13;;;7.82;;
45694;SDS011;31408;45.468;9.124;2023-02-10T14:52:58;22.38;;;8.55;;
45694;SDS011;31408;45.468;9.124;2023-02-10T14:55:25;17.35;;;8.35;;
45694;SDS011;31408;45.468;9.124;2023-02-10T14:57:51;22.17;;;8.55;;
45694;SDS011;31408;45.468;9.124;2023-02-10T15:00:17;20.42;;;8.18;;
45694;SDS011;31408;45.468;9.124;2023-02-10T15:02:59;22.13;;;8.68;;
45694;SDS011;31408;45.468;9.124;2023-02-10T15:05:28;16.05;;;8.63;;
45694;SDS011;31408;45.468;9.124;2023-02-10T15:07:59;19.52;;;7.97;;
45694;SDS011;31408;45.468;9.124;2023-02-10T15:10:32;18.48;;;8.27;;
45694;SDS011;31408;45.468;9.124;2023-02-10T15:13:04;19.20;;;7.80;;
45694;SDS011;31408;45.468;9.124;2023-02-10T15:15:31;21.75;;;7.82;;
45694;SDS011;31408;45.468;9.124;2023-02-10T15:18:04;18.33;;;8.38;;
45694;SDS011;31408;45.468;9.124;2023-02-10T15:20:35;20.02;;;8.60;;
45694;SDS011;31408;45.468;9.124;2023-02-10T15:33:25;20.58;;;7.80;;
45694;SDS011;31408;45.468;9.124;2023-02-10T15:36:29;17.77;;;7.03;;
45694;SDS011;31408;45.468;9.124;2023-02-10T15:41:27;21.10;;;7.93;;
45694;SDS011;31408;45.468;9.124;2023-02-10T15:43:57;24.58;;;9.27;;
45694;SDS011;31408;45.468;9.124;2023-02-10T15:46:23;25.95;;;10.57;;
45694;SDS011;31408;45.468;9.124;2023-02-10T15:48:50;21.70;;;8.02;;
45694;SDS011;31408;45.468;9.124;2023-02-10T15:51:23;21.30;;;8.50;;
45694;SDS011;31408;45.468;9.124;2023-02-10T15:53:50;18.95;;;8.32;;
45694;SDS011;31408;45.468;9.124;2023-02-10T15:56:20;22.08;;;8.95;;
45694;SDS011;31408;45.468;9.124;2023-02-10T15:58:46;20.98;;;8.95;;
45694;SDS011;31408;45.468;9.124;2023-02-10T16:01:14;21.35;;;8.15;;
45694;SDS011;31408;45.468;9.124;2023-02-10T16:03:40;25.05;;;9.70;;
45694;SDS011;31408;45.468;9.124;2023-02-10T16:06:06;26.98;;;8.77;;
45694;SDS011;31408;45.468;9.124;2023-02-10T16:08:31;23.42;;;9.25;;
45694;SDS011;31408;45.468;9.124;2023-02-10T16:10:57;19.05;;;8.00;;
45694;SDS011;31408;45.468;9.124;2023-02-10T16:13:22;17.85;;;7.10;;
45694;SDS011;31408;45.468;9.124;2023-02-10T16:15:49;19.35;;;7.75;;
45694;SDS011;31408;45.468;9.124;2023-02-10T16:18:15;18.88;;;8.23;;
45694;SDS011;31408;45.468;9.124;2023-02-10T16:20:43;21.98;;;9.00;;
45694;SDS011;31408;45.468;9.124;2023-02-10T16:23:12;19.48;;;8.00;;
45694;SDS011;31408;45.468;9.124;2023-02-10T16:25:39;23.88;;;8.30;;
45694;SDS011;31408;45.468;9.124;2023-02-10T16:28:05;22.00;;;8.25;;
45694;SDS011;31408;45.468;9.124;2023-02-10T16:30:32;24.05;;;8.82;;
45694;SDS011;31408;45.468;9.124;2023-02-10T16:33:03;20.75;;;8.48;;
45694;SDS011;31408;45.468;9.124;2023-02-10T16:35:29;22.20;;;8.05;;
45694;SDS011;31408;45.468;9.124;2023-02-10T16:37:54;24.23;;;9.65;;
45694;SDS011;31408;45.468;9.124;2023-02-10T16:40:28;20.77;;;9.25;;
45694;SDS011;31408;45.468;9.124;2023-02-10T16:42:55;24.02;;;9.45;;
45694;SDS011;31408;45.468;9.124;2023-02-10T16:45:21;21.23;;;8.45;;
45694;SDS011;31408;45.468;9.124;2023-02-10T16:47:47;22.58;;;9.32;;
45694;SDS011;31408;45.468;9.124;2023-02-10T16:50:17;20.58;;;9.05;;